Rechercher aéroport 
image banner adimage banner ad
image banner ad

SIUA - Fazenda Barra do Lagoa Airport

Situé à Santa Rita Do Pardo, Brazil

ICAO - SIUA, IATA -

Données fournies par Airmate  

Information générale

Coordonnées: S30°7'10" W50°51'13"
Élévation : 118 feet MSL.
Variation magnétique : -17° East
Voir autres Aéroports à Rio Grande do Sul

Données opérationnelles

Accessible au public
Heure actuelle UTC:
Heure actuelle locale:
Météo à : SBPA - Salgado Filho ( 34 km )
METAR: SBPA 290100Z 24003KT 200V300 CAVOK 15/14 Q1016
TAF: TAF SBPA 282200Z 2900/2924 27009KT 7000 SCT025 TN16/2909Z TX23/2917Z PROB40 2907/2911 2000 BR BKN004 BECMG 2912/2914 SCT025 RMK PEI
Voir NOTAMs / SUP AIP / TFR affectant cet aéroport [VIEW]
Fréquences de communication: [VIEW]

Pistes:

Identifiant RWYQFULongueur (ft)Largeur (ft)SurfaceLDA (ft)
17147665GRASS
35147665GRASS

Coordonnées de l'aéroport

Adresse: Santa Rita Do Pardo Brazil

Vue satellite de SIUA